createdAt,value
2023-05-13T05:00:17.249Z,8.50
2023-05-13T05:02:44.384Z,8.15
2023-05-13T05:05:11.482Z,8.90
2023-05-13T05:07:40.503Z,8.07
2023-05-13T05:10:08.654Z,7.00
2023-05-13T05:12:36.324Z,5.50
2023-05-13T05:15:03.536Z,6.15
2023-05-13T05:37:09.706Z,5.30
2023-05-13T05:39:36.898Z,4.65
2023-05-13T05:42:04.092Z,4.35
2023-05-13T05:44:31.173Z,4.32
2023-05-13T05:46:58.310Z,4.15
2023-05-13T05:49:25.393Z,3.47
2023-05-13T05:51:52.491Z,3.42
2023-05-13T05:54:19.576Z,3.22
2023-05-13T05:56:46.644Z,3.75
2023-05-13T05:59:13.742Z,3.08
2023-05-13T06:01:41.283Z,3.60
2023-05-13T06:04:08.582Z,4.65
2023-05-13T06:06:35.979Z,3.30
2023-05-13T06:09:03.169Z,3.90
2023-05-13T06:11:30.403Z,4.15
2023-05-13T06:13:57.755Z,3.03
2023-05-13T06:18:52.003Z,3.20
2023-05-13T06:21:19.193Z,3.75
2023-05-13T06:23:46.313Z,3.45
2023-05-13T07:49:41.970Z,2.10
2023-05-13T07:54:36.192Z,2.20
2023-05-13T07:57:03.957Z,2.43
2023-05-13T07:59:31.111Z,2.53
2023-05-13T08:01:58.229Z,2.53
2023-05-13T08:04:26.468Z,2.83
2023-05-13T08:06:53.700Z,2.40
2023-05-13T08:09:20.811Z,2.90
2023-05-13T08:11:47.913Z,2.45
2023-05-13T08:14:14.978Z,2.65
2023-05-13T08:16:42.190Z,2.73
2023-05-13T08:19:09.954Z,1.95
2023-05-13T08:21:37.149Z,2.40
2023-05-13T08:24:04.366Z,2.40
2023-05-13T08:26:31.480Z,2.25
2023-05-13T08:28:58.571Z,2.72
2023-05-13T08:31:25.929Z,2.63
2023-05-13T08:33:56.069Z,2.42
2023-05-13T08:36:23.355Z,2.28
2023-05-13T08:38:50.474Z,2.67
2023-05-13T08:41:18.938Z,2.30
2023-05-13T08:43:47.848Z,1.63
2023-05-13T08:46:16.600Z,2.45
2023-05-13T08:48:44.101Z,2.95
2023-05-13T08:51:11.217Z,2.67
2023-05-13T09:52:32.213Z,2.33
2023-05-13T09:55:00.002Z,2.30
2023-05-13T09:57:30.309Z,1.85
2023-05-13T10:00:01.174Z,2.65
2023-05-13T10:02:29.198Z,2.63
2023-05-13T10:04:56.976Z,2.60
2023-05-13T10:07:27.350Z,2.60
2023-05-13T10:09:57.865Z,3.15
2023-05-13T10:12:28.921Z,2.45
2023-05-13T10:14:56.902Z,2.53
2023-05-13T10:17:25.093Z,2.83
2023-05-13T10:19:53.100Z,2.08
2023-05-13T10:22:25.301Z,2.53
2023-05-13T10:24:52.651Z,2.50
2023-05-13T10:27:19.950Z,2.58
2023-05-13T10:29:47.337Z,2.58
2023-05-13T10:32:15.127Z,2.53
2023-05-13T10:34:43.553Z,2.53
2023-05-13T10:37:10.676Z,2.67
2023-05-13T10:39:37.790Z,2.92
2023-05-13T10:42:14.128Z,3.10
2023-05-13T10:44:41.244Z,2.78
2023-05-13T10:47:11.073Z,2.75
2023-05-13T10:49:39.606Z,2.83
2023-05-13T10:52:08.370Z,2.95
2023-05-13T10:54:40.435Z,2.63
2023-05-13T10:57:07.900Z,3.60
2023-05-13T10:59:36.247Z,3.35
2023-05-13T11:02:04.301Z,2.70
2023-05-13T11:04:31.452Z,3.13
2023-05-13T11:07:14.650Z,2.72
2023-05-13T11:09:41.880Z,3.67
2023-05-13T11:12:15.584Z,2.90
2023-05-13T11:14:46.440Z,2.95
2023-05-13T11:17:14.156Z,2.40
2023-05-13T11:19:47.624Z,2.70
2023-05-13T11:22:16.710Z,3.00
2023-05-13T11:24:48.780Z,3.70
2023-05-13T11:27:17.184Z,2.65
2023-05-13T11:29:52.185Z,2.72
2023-05-13T11:32:48.585Z,2.33
2023-05-13T11:35:20.775Z,2.90
2023-05-13T11:37:49.335Z,2.65
2023-05-13T11:40:23.258Z,2.75
2023-05-13T11:42:50.738Z,2.30
2023-05-13T11:45:18.287Z,2.45
2023-05-13T11:47:45.735Z,2.45
2023-05-13T11:50:22.402Z,2.92
2023-05-13T11:52:56.523Z,2.60
2023-05-13T11:55:27.108Z,2.85
2023-05-13T11:57:54.389Z,3.10
2023-05-13T12:00:31.298Z,2.75
2023-05-13T12:02:59.030Z,2.03
2023-05-13T12:05:27.253Z,2.55
2023-05-13T12:07:58.155Z,2.38
2023-05-13T12:10:26.572Z,2.40
2023-05-13T12:12:53.916Z,2.55
2023-05-13T12:15:22.111Z,2.70
2023-05-13T12:17:49.987Z,2.55
2023-05-13T12:20:23.931Z,3.13
2023-05-13T12:22:52.572Z,1.90
2023-05-13T12:25:32.272Z,2.35
2023-05-13T12:28:00.049Z,3.22
2023-05-13T12:30:33.917Z,2.85
2023-05-13T12:33:01.147Z,2.78
2023-05-13T12:35:28.266Z,2.72
2023-05-13T12:38:02.213Z,2.97
2023-05-13T12:40:29.404Z,2.50
2023-05-13T12:45:24.017Z,2.80
2023-05-13T12:47:51.691Z,2.88
2023-05-13T12:50:18.910Z,2.80
2023-05-13T12:52:46.119Z,3.00
2023-05-13T12:55:13.469Z,2.50
2023-05-13T12:57:42.320Z,2.60
2023-05-13T13:00:12.826Z,2.17
2023-05-13T13:02:40.396Z,2.80
2023-05-13T13:05:07.938Z,2.78
2023-05-13T13:07:35.219Z,2.50
2023-05-13T13:10:02.352Z,2.13
2023-05-13T13:12:29.460Z,2.17
2023-05-13T13:29:40.440Z,2.33
2023-05-13T13:32:08.099Z,2.63
2023-05-13T13:34:35.575Z,2.65
2023-05-13T13:37:02.700Z,2.45
2023-05-13T13:39:29.786Z,2.42
2023-05-13T13:41:57.324Z,2.50
2023-05-13T13:44:24.761Z,2.03
2023-05-13T13:46:52.694Z,2.10
2023-05-13T13:49:23.909Z,2.20
2023-05-13T13:51:52.985Z,2.60
2023-05-13T13:54:20.432Z,2.40
2023-05-13T13:56:48.686Z,2.75
2023-05-13T13:59:15.830Z,2.30
2023-05-13T14:01:43.960Z,2.38
2023-05-13T14:04:20.139Z,2.00
2023-05-13T14:06:47.812Z,2.70
2023-05-13T14:11:42.353Z,2.57
2023-05-13T14:14:09.467Z,2.15
2023-05-13T14:16:36.896Z,2.38
2023-05-13T14:19:04.082Z,2.45
2023-05-13T14:21:31.217Z,2.03
2023-05-13T14:23:58.296Z,2.33
2023-05-13T14:26:26.379Z,3.13
2023-05-13T14:28:53.967Z,2.33
2023-05-13T14:31:21.252Z,2.40
2023-05-13T14:33:48.458Z,2.90
2023-05-13T14:36:20.718Z,3.35
2023-05-13T14:38:47.823Z,2.25
2023-05-13T14:41:19.799Z,2.47
2023-05-13T14:43:47.550Z,2.45
2023-05-13T14:46:14.932Z,3.10
2023-05-13T14:48:42.140Z,2.28
2023-05-13T14:51:11.070Z,2.40
2023-05-13T14:53:38.180Z,2.75
2023-05-13T14:56:05.501Z,2.45
2023-05-13T14:58:32.660Z,2.70
2023-05-13T15:00:59.795Z,2.35
2023-05-13T15:23:03.965Z,3.05
2023-05-13T15:25:31.307Z,2.70
2023-05-13T15:52:29.480Z,2.53
2023-05-13T15:54:56.600Z,2.30
2023-05-13T15:57:23.740Z,2.55
2023-05-13T15:59:50.908Z,2.42
2023-05-13T16:02:18.420Z,2.33
2023-05-13T16:04:45.981Z,2.58
2023-05-13T16:07:13.353Z,2.72
2023-05-13T16:09:40.473Z,2.90
2023-05-13T16:12:07.789Z,2.63
2023-05-13T16:14:34.945Z,2.55
2023-05-13T16:17:02.231Z,3.10
2023-05-13T17:23:22.134Z,2.57
2023-05-13T17:45:30.901Z,5.05
2023-05-13T17:47:58.147Z,4.22
2023-05-13T17:50:25.351Z,3.70
2023-05-13T17:52:52.471Z,4.50
2023-05-13T18:37:00.394Z,3.22
2023-05-13T18:39:27.484Z,4.13
2023-05-13T19:08:52.734Z,4.28
2023-05-13T19:11:19.880Z,3.88
2023-05-13T19:13:47.875Z,4.13
2023-05-13T19:16:15.628Z,3.83
2023-05-13T20:49:34.072Z,10.25
2023-05-13T20:52:03.309Z,9.23
2023-05-13T20:54:30.545Z,8.38
2023-05-13T20:56:57.689Z,8.88
2023-05-13T20:59:24.826Z,8.95
2023-05-13T21:01:51.945Z,8.70
2023-05-13T21:04:19.351Z,9.80
2023-05-13T21:06:46.648Z,13.45
2023-05-13T21:09:13.838Z,12.90
2023-05-13T22:00:43.602Z,15.60
2023-05-13T22:03:10.939Z,13.88
